Airfield :
LOGIN :

Register | Disclaimer

   EN    FR    IT 

 










Legend :    VFR   Marginal VFR   IFR   Intensive IFR   Very Intensive IFR
Visi :
Ceiling :
>= 8 km
>= 3000ft
5 to 8 km
1000 to 3000 ft
1500m to 5 km
500 to 1000 ft
800 to 1500m
200 to 500 ft
< 800m
< 200 ft
Symbols :   Thunderstorms  Fog  Heavy snow  Heavy precipitations  Wind > 20 kt
SIGMETs :     Misc.  Thunderstorms  Icing  Turbulence  Mountain Waves  Volcanic Ashes






- Airport Elevation : 302 ft
- IATA code : CGN


EDDK - Cologne Bonn

CURRENT METAR :
  • 281550Z 02013KT 340V050 CAVOK 21/02 Q1029 NOSIG

EXPIRED METARs :
  • 281520Z 04009KT 350V090 CAVOK 22/01 Q1030 NOSIG
  • 281450Z 02012KT CAVOK 21/02 Q1030 NOSIG
  • 281420Z 36011KT 330V030 CAVOK 21/02 Q1030 NOSIG
  • 281350Z 02011KT 340V060 CAVOK 21/01 Q1030 NOSIG
  • 281320Z 02012KT CAVOK 22/01 Q1031 NOSIG

TAF TAF EDDK
Valid from the 28 at 12:00 until the 29 at 18:00 UTC


281100Z 2812/2918 01010KT CAVOK
BECMG 2819/2822 VRB03KT
BECMG 2909/2912 04007KT



MET'MAP, your aeronautical weather chart ! - Copyright ORBIFLY December 2007 - Disclaimer

ORBIFLY MET'MAP TEAM :

Programming & Development : Alexandra Zaïnal
Concept & original design : Baudouin d'Aumeries
Assistance for programming : Marc-Olivier Méhu
Technical & hardware support : Manuel Goepfert

Contact : metmap@orbifly.com




SOURCES & CREDITS :

   NOAA